23 min.
Landingsbaan Tegenwind Zijwind Lengte
8/26 3 kt 5 kt 2.440 m
METAR ETNT 202220Z 02006KT 9999 BKN011 14/12 Q1010 GRN

METAR uitleg | Integreren

METAR Wittmundhafen Air Base

Dit veld bevindt zich in Duitsland. Het vliegveld heeft één landingsbaan: 8/26 (2.440 m)

Dit rapport is opgesteld voor Wittmundhafen Air Base op 21 juni 2021 00:20, lokale tijd.

Vliegveldwaarnemingen

De wind staat vanuit de richting noordnoordoost (020°) met een snelheid van 6 kt.

Het zicht is 10 km of meer.

Er is zwaar bewolkt op 1.100 ft hoogte. De wolkenbasis, broken of meer, is 1.100 ft.

De temperatuur en gevoelstemperatuur zijn 14 °C. Het dauwpunt is 12 °C, dus is de relatieve luchtvochtigheid 88%. De luchtdruk op zeeniveau is 1010 hPa (QNH).

Daglichtperiode

De zon komt vandaag op om 04:59 en gaat onder om 22:02. Dit geldt voor Wittmundhafen Air Base, de universele daglichtperiode kan anders zijn. Het verschil tussen de lokale tijd en UTC is +2 uur. Op dit moment is er sprake van zomertijd.

Historische gegevens

Doneren

Help je mee om Metar-Taf.com draaiend te houden?
Jouw bijdrage helpt om de site verder te ontwikkelen en om de kosten te betalen.

Nooit meer advertenties

Doneer je € 5 of meer? Dan laten we je nooit meer advertenties zien, als blijk van onze eeuwige dankbaarheid!
Log wel even in voordat je doneert

Wil je het vliegweer van Wittmundhafen Air Base op jouw website? Meer info   Gratis!